createdAt,value
2024-01-15T00:00:06.067Z,18.00
2024-01-15T00:02:35.617Z,20.88
2024-01-15T00:05:52.890Z,15.75
2024-01-15T00:08:23.989Z,17.50
2024-01-15T00:10:52.562Z,14.20
2024-01-15T00:13:34.775Z,14.38
2024-01-15T00:16:08.246Z,14.07
2024-01-15T00:18:40.868Z,13.45
2024-01-15T00:21:23.475Z,13.88
2024-01-15T00:24:06.246Z,14.88
2024-01-15T00:26:37.363Z,14.02
2024-01-15T00:29:21.051Z,15.40
2024-01-15T00:31:55.788Z,17.02
2024-01-15T00:34:26.837Z,15.60
2024-01-15T00:36:55.074Z,14.63
2024-01-15T00:39:27.632Z,20.73
2024-01-15T00:41:58.320Z,48.08
2024-01-15T00:44:29.384Z,44.13
2024-01-15T00:46:57.009Z,28.70
2024-01-15T00:49:32.279Z,28.02
2024-01-15T00:52:00.635Z,30.08
2024-01-15T00:54:36.479Z,26.52
2024-01-15T00:57:16.346Z,32.80
2024-01-15T00:59:43.780Z,32.92
2024-01-15T01:02:14.602Z,35.08
2024-01-15T01:04:47.559Z,29.05
2024-01-15T01:07:18.650Z,24.48
2024-01-15T01:09:56.875Z,21.58
2024-01-15T01:12:26.540Z,21.92
2024-01-15T01:14:56.282Z,19.00
2024-01-15T01:17:42.541Z,16.48
2024-01-15T01:23:07.946Z,14.45
2024-01-15T01:25:39.425Z,18.02
2024-01-15T01:28:31.847Z,25.38
2024-01-15T01:31:06.298Z,20.40
2024-01-15T01:36:20.452Z,22.83
2024-01-15T01:39:12.109Z,21.73
2024-01-15T01:41:46.536Z,14.15
2024-01-15T01:44:17.423Z,32.53
2024-01-15T01:46:48.372Z,29.67
2024-01-15T01:51:43.712Z,18.75
2024-01-15T01:54:25.204Z,19.35
2024-01-15T01:56:54.541Z,16.88
2024-01-15T01:59:23.819Z,9.80
2024-01-15T02:01:55.738Z,9.50
2024-01-15T02:04:41.056Z,7.63
2024-01-15T02:07:11.897Z,6.35
2024-01-15T02:09:48.000Z,10.40
2024-01-15T02:12:17.213Z,16.25
2024-01-15T02:14:47.116Z,11.85
2024-01-15T02:17:27.013Z,8.60
2024-01-15T02:19:56.326Z,9.65
2024-01-15T02:25:47.010Z,10.55
2024-01-15T02:28:32.917Z,13.73
2024-01-15T02:31:08.038Z,19.05
2024-01-15T02:33:37.035Z,21.00
2024-01-15T02:36:18.512Z,14.40
2024-01-15T02:38:50.345Z,11.13
2024-01-15T02:41:28.437Z,11.25
2024-01-15T02:44:00.784Z,11.40
2024-01-15T02:46:28.190Z,11.68
2024-01-15T02:49:08.053Z,11.65
2024-01-15T02:51:37.764Z,11.93
2024-01-15T02:54:06.938Z,14.32
2024-01-15T02:56:36.137Z,13.77
2024-01-15T02:59:08.675Z,13.98
2024-01-15T03:01:38.448Z,12.02
2024-01-15T03:04:06.197Z,12.07
2024-01-15T03:06:33.551Z,12.77
2024-01-15T03:12:15.286Z,11.77
2024-01-15T03:14:48.486Z,10.23
2024-01-15T03:17:19.740Z,14.63
2024-01-15T03:20:03.692Z,11.88
2024-01-15T03:22:38.259Z,12.90
2024-01-15T03:25:08.813Z,16.98
2024-01-15T03:27:41.906Z,27.85
2024-01-15T03:30:16.042Z,47.10
2024-01-15T03:32:43.232Z,70.75
2024-01-15T03:35:18.572Z,52.08
2024-01-15T03:37:49.678Z,33.03
2024-01-15T03:40:24.101Z,38.83
2024-01-15T03:45:32.262Z,17.55
2024-01-15T03:48:07.576Z,17.40
2024-01-15T03:50:43.836Z,15.32
2024-01-15T03:53:14.158Z,18.40
2024-01-15T03:55:47.963Z,17.60
2024-01-15T03:58:19.538Z,19.50
2024-01-15T04:01:02.898Z,16.85
2024-01-15T04:03:51.792Z,16.25
2024-01-15T04:06:18.978Z,15.90
2024-01-15T04:08:52.598Z,16.05
2024-01-15T04:11:42.328Z,14.13
2024-01-15T04:14:16.574Z,15.23
2024-01-15T04:16:49.168Z,16.20
2024-01-15T04:19:24.005Z,20.73
2024-01-15T04:21:53.033Z,22.25
2024-01-15T04:24:23.044Z,20.27
2024-01-15T04:29:34.640Z,22.30
2024-01-15T04:32:03.095Z,20.83
2024-01-15T04:34:37.873Z,14.25
2024-01-15T04:37:08.619Z,16.42
2024-01-15T04:39:39.697Z,21.15
2024-01-15T04:42:10.771Z,37.92
2024-01-15T04:44:49.046Z,32.03
2024-01-15T04:47:26.005Z,33.92
2024-01-15T04:49:56.813Z,28.60
2024-01-15T04:52:24.895Z,22.17
2024-01-15T04:55:05.722Z,20.92
2024-01-15T04:57:36.016Z,17.33
2024-01-15T05:00:13.827Z,24.77
2024-01-15T05:02:48.451Z,31.73
2024-01-15T05:05:23.519Z,20.42
2024-01-15T05:10:50.571Z,17.08
2024-01-15T05:13:18.472Z,23.25
2024-01-15T05:18:30.764Z,19.67
2024-01-15T05:20:59.805Z,17.55
2024-01-15T05:23:30.364Z,25.77
2024-01-15T05:25:57.785Z,26.27
2024-01-15T05:28:32.264Z,25.80
2024-01-15T05:31:05.394Z,27.65
2024-01-15T05:33:34.442Z,37.17
2024-01-15T05:36:02.359Z,23.88
2024-01-15T05:38:39.952Z,24.40
2024-01-15T05:41:09.168Z,36.58
2024-01-15T05:43:38.687Z,24.77
2024-01-15T05:46:19.172Z,16.73
2024-01-15T05:49:10.272Z,16.17
2024-01-15T05:51:40.395Z,18.25
2024-01-15T05:54:07.873Z,17.45
2024-01-15T05:56:42.155Z,15.02
2024-01-15T05:59:20.648Z,18.33
2024-01-15T06:01:58.873Z,19.13
2024-01-15T06:04:31.326Z,13.88
2024-01-15T06:07:06.018Z,16.80
2024-01-15T06:09:37.317Z,16.92
2024-01-15T06:12:06.280Z,16.98
2024-01-15T06:14:37.274Z,13.73
2024-01-15T06:17:07.903Z,12.57
2024-01-15T06:19:52.443Z,11.75
2024-01-15T06:22:23.238Z,13.48
2024-01-15T06:24:56.028Z,11.73
2024-01-15T06:27:29.471Z,12.38
2024-01-15T06:30:08.329Z,7.75
2024-01-15T06:32:45.278Z,7.97
2024-01-15T06:35:22.646Z,8.88
2024-01-15T06:37:58.183Z,9.48
2024-01-15T06:40:30.084Z,9.65
2024-01-15T06:43:22.685Z,10.13
2024-01-15T06:46:12.046Z,9.55
2024-01-15T06:51:26.276Z,12.98
2024-01-15T06:53:53.461Z,11.90
2024-01-15T06:59:01.209Z,11.68
2024-01-15T07:01:31.780Z,10.90
2024-01-15T07:04:03.734Z,13.38
2024-01-15T07:06:32.087Z,13.95
2024-01-15T07:09:30.083Z,25.13
2024-01-15T07:11:50.335Z,33.92
2024-01-15T07:14:19.152Z,35.35
2024-01-15T07:16:57.636Z,14.25
2024-01-15T07:19:31.311Z,15.10
2024-01-15T07:22:13.552Z,19.13
2024-01-15T07:25:01.925Z,15.52
2024-01-15T07:27:29.143Z,13.73
2024-01-15T07:30:07.160Z,14.07
2024-01-15T07:32:35.673Z,13.60
2024-01-15T07:35:07.183Z,14.75
2024-01-15T07:37:35.226Z,33.00
2024-01-15T07:46:14.359Z,32.38
2024-01-15T07:48:44.452Z,34.20
2024-01-15T07:51:12.623Z,37.00
2024-01-15T07:53:40.191Z,12.73
2024-01-15T07:56:11.723Z,8.15
2024-01-15T07:58:45.980Z,8.90
2024-01-15T08:01:18.887Z,9.18
2024-01-15T08:03:57.194Z,9.10
2024-01-15T08:06:35.390Z,11.18
2024-01-15T08:09:06.268Z,10.43
2024-01-15T08:11:33.466Z,11.15
2024-01-15T08:14:02.359Z,12.25
2024-01-15T08:16:30.429Z,10.57
2024-01-15T08:19:14.379Z,9.20
2024-01-15T08:21:49.167Z,43.00
2024-01-15T08:24:21.263Z,45.78
2024-01-15T08:29:39.956Z,11.82
2024-01-15T08:32:07.811Z,10.48
2024-01-15T08:34:53.860Z,10.75
2024-01-15T08:37:42.045Z,10.18
2024-01-15T08:40:10.168Z,10.63
2024-01-15T08:42:51.923Z,11.10
2024-01-15T08:45:24.299Z,14.57
2024-01-15T08:47:54.153Z,10.82
2024-01-15T08:52:49.667Z,12.00
2024-01-15T08:55:19.452Z,11.45
2024-01-15T08:57:47.124Z,11.75
2024-01-15T09:00:16.951Z,15.88
2024-01-15T09:03:04.076Z,21.08
2024-01-15T09:05:42.414Z,21.20
2024-01-15T09:08:10.452Z,15.35
2024-01-15T09:10:44.976Z,16.92
2024-01-15T09:13:17.877Z,16.92
2024-01-15T09:15:47.630Z,20.15
2024-01-15T09:20:58.790Z,23.00
2024-01-15T09:23:29.726Z,30.00
2024-01-15T09:26:07.707Z,21.40
2024-01-15T09:28:40.264Z,20.17
2024-01-15T09:31:09.798Z,19.52
2024-01-15T09:33:37.640Z,19.48
2024-01-15T09:36:10.970Z,16.50
2024-01-15T09:38:44.254Z,15.05
2024-01-15T09:41:11.818Z,17.73
2024-01-15T09:44:00.780Z,19.35
2024-01-15T09:52:11.926Z,18.75
2024-01-15T09:54:49.820Z,18.05
2024-01-15T09:57:20.493Z,18.23
2024-01-15T09:59:50.387Z,19.48
2024-01-15T10:05:01.709Z,15.82
2024-01-15T10:08:02.505Z,17.08
2024-01-15T10:10:20.612Z,16.58
2024-01-15T10:12:50.158Z,17.75
2024-01-15T10:17:59.460Z,17.00
2024-01-15T10:20:51.911Z,16.58
2024-01-15T10:23:26.477Z,16.55
2024-01-15T10:25:54.192Z,30.02
2024-01-15T10:28:29.889Z,26.92
2024-01-15T10:31:02.494Z,18.00
2024-01-15T10:33:33.382Z,15.50
2024-01-15T10:36:11.319Z,13.98
2024-01-15T10:38:47.020Z,13.60
2024-01-15T10:41:14.423Z,9.52
2024-01-15T10:43:47.774Z,11.85
2024-01-15T10:46:20.681Z,13.57
2024-01-15T10:48:52.661Z,14.23
2024-01-15T10:51:27.638Z,18.75
2024-01-15T10:53:59.613Z,23.90
2024-01-15T10:56:49.822Z,21.08
2024-01-15T10:59:38.670Z,16.50
2024-01-15T11:04:50.374Z,16.13
2024-01-15T11:10:48.501Z,15.88
2024-01-15T11:13:53.090Z,14.82
2024-01-15T11:16:20.931Z,13.15
2024-01-15T11:19:20.374Z,13.77
2024-01-15T11:21:50.096Z,13.25
2024-01-15T11:24:57.343Z,13.65
2024-01-15T11:27:53.938Z,13.88
2024-01-15T11:30:30.484Z,14.30
2024-01-15T11:32:58.239Z,13.80
2024-01-15T11:35:52.088Z,14.05
2024-01-15T11:38:31.680Z,14.02
2024-01-15T11:41:03.539Z,16.80
2024-01-15T11:43:32.996Z,14.85
2024-01-15T11:46:07.050Z,16.27
2024-01-15T11:49:11.689Z,16.27
2024-01-15T11:51:55.775Z,16.05
2024-01-15T11:54:38.158Z,17.52
2024-01-15T11:57:16.439Z,19.88
2024-01-15T11:59:48.767Z,20.15
2024-01-15T12:02:24.094Z,22.10
2024-01-15T12:05:00.291Z,22.33
2024-01-15T12:07:56.019Z,23.25
2024-01-15T12:10:32.427Z,11.88
2024-01-15T12:13:37.110Z,12.05
2024-01-15T12:16:25.454Z,12.75
2024-01-15T12:21:48.723Z,14.65
2024-01-15T12:24:20.957Z,11.63
2024-01-15T12:27:00.194Z,12.45
2024-01-15T12:29:31.034Z,11.80
2024-01-15T12:32:03.192Z,12.30
2024-01-15T12:34:46.206Z,12.65
2024-01-15T12:37:17.310Z,11.98
2024-01-15T12:39:52.951Z,12.57
2024-01-15T12:42:28.055Z,13.00
2024-01-15T12:45:08.873Z,10.60
2024-01-15T12:47:38.547Z,7.47
2024-01-15T12:50:20.086Z,7.40
2024-01-15T12:52:57.834Z,10.18
2024-01-15T12:55:30.587Z,6.13
2024-01-15T12:57:59.828Z,7.38
2024-01-15T13:00:27.857Z,8.73
2024-01-15T13:03:03.832Z,6.78
2024-01-15T13:05:54.098Z,5.78
2024-01-15T13:11:02.382Z,10.05
2024-01-15T13:13:39.011Z,9.15
2024-01-15T13:16:10.235Z,10.40
2024-01-15T13:18:41.066Z,13.98
2024-01-15T13:21:14.452Z,19.58
2024-01-15T13:23:42.976Z,16.38
2024-01-15T13:26:18.955Z,16.75
2024-01-15T13:28:46.693Z,10.80
2024-01-15T13:31:14.209Z,13.38
2024-01-15T13:33:48.059Z,13.10
2024-01-15T13:36:20.275Z,13.20
2024-01-15T13:38:59.115Z,12.63
2024-01-15T13:41:28.664Z,10.82
2024-01-15T13:43:59.697Z,9.45
2024-01-15T13:46:29.202Z,10.82
2024-01-15T13:49:01.161Z,8.38
2024-01-15T13:54:34.089Z,10.68
2024-01-15T13:57:16.585Z,9.23
2024-01-15T13:59:46.712Z,7.63
2024-01-15T14:02:24.980Z,7.63
2024-01-15T14:05:02.789Z,6.13
2024-01-15T14:07:34.477Z,8.25
2024-01-15T14:10:08.099Z,6.80
2024-01-15T14:12:52.351Z,4.88
2024-01-15T14:15:24.581Z,3.28
2024-01-15T14:18:09.181Z,3.60
2024-01-15T14:20:57.893Z,3.90
2024-01-15T14:23:43.181Z,4.32
2024-01-15T14:26:15.411Z,4.35
2024-01-15T14:28:44.536Z,4.47
2024-01-15T14:31:36.573Z,3.53
2024-01-15T14:34:15.121Z,3.75
2024-01-15T14:36:49.434Z,3.65
2024-01-15T14:42:13.891Z,4.30
2024-01-15T14:45:00.127Z,5.82
2024-01-15T14:47:28.610Z,9.70
2024-01-15T14:52:41.015Z,7.90
2024-01-15T14:55:11.249Z,6.63
2024-01-15T14:57:43.756Z,6.78
2024-01-15T15:00:13.738Z,5.78
2024-01-15T15:02:41.457Z,6.18
2024-01-15T15:05:22.312Z,5.78
2024-01-15T15:07:50.180Z,5.90
2024-01-15T15:10:21.986Z,5.00
2024-01-15T15:12:54.936Z,4.43
2024-01-15T15:15:26.165Z,4.90
2024-01-15T15:17:53.365Z,5.13
2024-01-15T15:20:38.629Z,5.45
2024-01-15T15:23:09.560Z,5.95
2024-01-15T15:25:44.986Z,5.63
2024-01-15T15:28:16.916Z,6.45
2024-01-15T15:30:44.317Z,7.30
2024-01-15T15:33:14.106Z,8.45
2024-01-15T15:35:42.380Z,8.02
2024-01-15T15:38:17.131Z,7.13
2024-01-15T15:40:47.613Z,7.18
2024-01-15T15:43:19.440Z,7.63
2024-01-15T15:45:57.341Z,7.15
2024-01-15T15:48:32.041Z,9.95
2024-01-15T15:51:04.032Z,14.38
2024-01-15T15:53:35.661Z,10.25
2024-01-15T15:58:58.107Z,10.82
2024-01-15T16:01:25.984Z,17.23
2024-01-15T16:03:54.686Z,15.27
2024-01-15T16:06:32.447Z,36.50
2024-01-15T16:09:21.669Z,23.00
2024-01-15T16:11:51.020Z,26.98
2024-01-15T16:14:23.839Z,22.67
2024-01-15T16:23:15.498Z,21.83
2024-01-15T16:23:30.262Z,20.25
2024-01-15T16:24:02.354Z,20.15
2024-01-15T16:29:04.712Z,12.77
2024-01-15T16:31:54.284Z,11.82
2024-01-15T16:34:24.320Z,11.90
2024-01-15T16:36:54.733Z,12.63
2024-01-15T16:39:36.187Z,14.85
2024-01-15T16:44:46.750Z,10.40
2024-01-15T16:47:13.981Z,10.13
2024-01-15T16:49:50.508Z,12.73
2024-01-15T16:52:27.295Z,14.60
2024-01-15T16:54:55.933Z,16.25
2024-01-15T16:57:26.915Z,14.55
2024-01-15T16:59:56.942Z,13.70
2024-01-15T17:02:26.516Z,13.18
2024-01-15T17:04:57.098Z,17.42
2024-01-15T17:07:29.568Z,22.40
2024-01-15T17:10:01.554Z,22.20
2024-01-15T17:12:36.761Z,20.65
2024-01-15T17:15:09.417Z,20.70
2024-01-15T17:17:42.263Z,22.15
2024-01-15T17:20:23.721Z,21.73
2024-01-15T17:22:58.362Z,17.60
2024-01-15T17:25:30.254Z,21.98
2024-01-15T17:28:05.323Z,26.27
2024-01-15T17:30:38.186Z,19.63
2024-01-15T17:33:08.341Z,19.05
2024-01-15T17:35:46.765Z,22.75
2024-01-15T17:38:22.270Z,44.67
2024-01-15T17:40:53.797Z,33.58
2024-01-15T17:43:28.200Z,19.08
2024-01-15T17:46:02.094Z,28.35
2024-01-15T17:48:38.922Z,36.70
2024-01-15T17:51:08.431Z,31.50
2024-01-15T17:53:37.419Z,23.83
2024-01-15T17:56:13.143Z,22.10
2024-01-15T18:01:19.610Z,17.05
2024-01-15T18:03:48.860Z,17.95
2024-01-15T18:06:17.437Z,29.52
2024-01-15T18:08:47.870Z,27.55
2024-01-15T18:11:20.678Z,38.47
2024-01-15T18:13:53.140Z,25.63
2024-01-15T18:16:35.338Z,34.78
2024-01-15T18:21:43.367Z,35.97
2024-01-15T18:24:28.901Z,39.88
2024-01-15T18:26:57.674Z,75.25
2024-01-15T18:29:32.683Z,51.60
2024-01-15T18:32:10.707Z,47.30
2024-01-15T18:34:39.168Z,45.65
2024-01-15T18:37:13.731Z,41.58
2024-01-15T18:40:12.846Z,21.80
2024-01-15T18:42:46.628Z,24.00
2024-01-15T18:45:38.210Z,27.40
2024-01-15T18:48:08.913Z,38.05
2024-01-15T18:50:37.976Z,30.77
2024-01-15T18:53:15.980Z,25.00
2024-01-15T18:55:45.026Z,24.25
2024-01-15T18:58:20.569Z,23.45
2024-01-15T19:00:53.762Z,25.83
2024-01-15T19:03:30.982Z,22.67
2024-01-15T19:06:10.051Z,17.92
2024-01-15T19:08:37.371Z,15.75
2024-01-15T19:11:04.993Z,15.75
2024-01-15T19:16:16.415Z,15.98
2024-01-15T19:18:54.438Z,11.73
2024-01-15T19:21:29.880Z,9.80
2024-01-15T19:24:23.975Z,10.80
2024-01-15T19:26:57.436Z,17.23
2024-01-15T19:29:30.603Z,31.10
2024-01-15T19:32:00.052Z,41.40
2024-01-15T19:39:29.794Z,26.30
2024-01-15T19:42:06.286Z,21.25
2024-01-15T19:44:56.646Z,22.35
2024-01-15T19:47:27.962Z,20.27
2024-01-15T19:49:57.069Z,17.10
2024-01-15T19:52:29.082Z,22.30
2024-01-15T19:55:00.781Z,21.42
2024-01-15T19:57:28.856Z,20.50
2024-01-15T19:59:59.649Z,16.65
2024-01-15T20:02:35.137Z,25.63
2024-01-15T20:05:15.157Z,18.77
2024-01-15T20:07:43.513Z,16.83
2024-01-15T20:10:23.359Z,13.88
2024-01-15T20:15:32.519Z,18.77
2024-01-15T20:18:11.985Z,14.43
2024-01-15T20:20:49.948Z,15.18
2024-01-15T20:23:19.422Z,17.35
2024-01-15T20:25:50.607Z,16.77
2024-01-15T20:28:17.996Z,14.65
2024-01-15T20:30:45.740Z,14.13
2024-01-15T20:38:41.635Z,14.20
2024-01-15T20:41:35.494Z,13.82
2024-01-15T20:44:08.389Z,14.50
2024-01-15T20:46:38.661Z,19.90
2024-01-15T20:49:14.449Z,30.70
2024-01-15T20:51:49.448Z,22.77
2024-01-15T20:54:18.964Z,14.35
2024-01-15T20:56:48.344Z,12.68
2024-01-15T20:59:20.903Z,13.27
2024-01-15T21:04:32.731Z,12.30
2024-01-15T21:07:01.330Z,14.15
2024-01-15T21:09:30.536Z,13.88
2024-01-15T21:11:57.713Z,15.15
2024-01-15T21:14:26.662Z,17.00
2024-01-15T21:17:03.237Z,14.45
2024-01-15T21:22:12.125Z,11.50
2024-01-15T21:24:41.624Z,12.82
2024-01-15T21:27:13.131Z,29.00
2024-01-15T21:29:44.765Z,11.02
2024-01-15T21:32:12.603Z,11.57
2024-01-15T21:35:03.600Z,10.35
2024-01-15T21:40:44.870Z,11.27
2024-01-15T21:43:08.996Z,11.25
2024-01-15T21:45:37.682Z,11.20
2024-01-15T21:48:29.689Z,12.07
2024-01-15T21:50:59.324Z,12.10
2024-01-15T21:53:31.438Z,16.02
2024-01-15T21:56:03.831Z,14.07
2024-01-15T21:58:40.584Z,19.05
2024-01-15T22:01:09.965Z,22.42
2024-01-15T22:03:46.946Z,21.42
2024-01-15T22:06:19.147Z,18.38
2024-01-15T22:08:52.652Z,12.38
2024-01-15T22:11:38.646Z,13.68
2024-01-15T22:16:51.486Z,22.40
2024-01-15T22:19:25.928Z,20.40
2024-01-15T22:21:58.493Z,20.35
2024-01-15T22:24:28.180Z,19.77
2024-01-15T22:27:23.262Z,21.52
2024-01-15T22:29:58.248Z,22.38
2024-01-15T22:32:32.670Z,27.73
2024-01-15T22:35:04.627Z,30.77
2024-01-15T22:37:39.091Z,30.38
2024-01-15T22:40:21.885Z,31.55
2024-01-15T22:43:00.549Z,25.60
2024-01-15T22:45:32.635Z,21.10
2024-01-15T22:48:00.876Z,18.90
2024-01-15T22:50:35.253Z,17.88
2024-01-15T22:53:17.506Z,20.02
2024-01-15T22:58:24.312Z,15.57
2024-01-15T23:00:53.620Z,15.60
2024-01-15T23:03:20.964Z,15.43
2024-01-15T23:05:58.623Z,15.68
2024-01-15T23:08:31.328Z,15.52
2024-01-15T23:11:02.275Z,21.98
2024-01-15T23:13:29.541Z,20.80
2024-01-15T23:15:56.700Z,29.83
2024-01-15T23:18:48.012Z,19.45
2024-01-15T23:21:15.300Z,18.98
2024-01-15T23:23:43.310Z,18.58
2024-01-15T23:26:17.544Z,18.00
2024-01-15T23:28:51.355Z,17.85
2024-01-15T23:31:23.310Z,15.43
2024-01-15T23:33:53.626Z,16.50
2024-01-15T23:36:20.975Z,18.98
2024-01-15T23:38:51.921Z,18.00
2024-01-15T23:41:22.793Z,18.60
2024-01-15T23:43:55.640Z,17.13
2024-01-15T23:46:26.169Z,16.05
2024-01-15T23:49:02.394Z,18.23
2024-01-15T23:51:43.615Z,25.95
2024-01-15T23:54:19.997Z,28.17
2024-01-15T23:56:50.639Z,29.40
2024-01-15T23:59:31.364Z,33.50
